sensor_id;sensor_type;location;lat;lon;timestamp;P1;durP1;ratioP1;P2;durP2;ratioP2
6926;SDS011;3503;50.07605000;8.86719200;2023-09-07T00:09:37;8.33;;;6.40;;
6926;SDS011;3503;50.07605000;8.86719200;2023-09-07T00:24:40;10.13;;;7.33;;
6926;SDS011;3503;50.07605000;8.86719200;2023-09-07T00:39:44;7.10;;;4.97;;
6926;SDS011;3503;50.07605000;8.86719200;2023-09-07T00:54:46;9.13;;;5.90;;
6926;SDS011;3503;50.07605000;8.86719200;2023-09-07T01:09:51;17.27;;;6.80;;
6926;SDS011;3503;50.07605000;8.86719200;2023-09-07T01:24:56;8.80;;;6.70;;
6926;SDS011;3503;50.07605000;8.86719200;2023-09-07T01:40:00;12.70;;;6.40;;
6926;SDS011;3503;50.07605000;8.86719200;2023-09-07T01:55:06;10.90;;;6.33;;
6926;SDS011;3503;50.07605000;8.86719200;2023-09-07T02:10:10;20.90;;;6.10;;
6926;SDS011;3503;50.07605000;8.86719200;2023-09-07T02:25:13;8.53;;;5.43;;
6926;SDS011;3503;50.07605000;8.86719200;2023-09-07T02:40:16;12.13;;;5.57;;
6926;SDS011;3503;50.07605000;8.86719200;2023-09-07T02:55:19;7.60;;;5.20;;
6926;SDS011;3503;50.07605000;8.86719200;2023-09-07T03:10:22;6.50;;;4.70;;
6926;SDS011;3503;50.07605000;8.86719200;2023-09-07T03:25:25;6.37;;;4.73;;
6926;SDS011;3503;50.07605000;8.86719200;2023-09-07T03:40:28;5.33;;;4.63;;
6926;SDS011;3503;50.07605000;8.86719200;2023-09-07T03:55:39;12.73;;;5.27;;
6926;SDS011;3503;50.07605000;8.86719200;2023-09-07T04:10:42;6.77;;;4.87;;
6926;SDS011;3503;50.07605000;8.86719200;2023-09-07T04:25:45;7.90;;;5.17;;
6926;SDS011;3503;50.07605000;8.86719200;2023-09-07T04:40:49;8.20;;;4.80;;
6926;SDS011;3503;50.07605000;8.86719200;2023-09-07T04:55:51;8.67;;;5.17;;
6926;SDS011;3503;50.07605000;8.86719200;2023-09-07T05:10:59;11.47;;;5.10;;
6926;SDS011;3503;50.07605000;8.86719200;2023-09-07T05:26:04;8.37;;;5.87;;
6926;SDS011;3503;50.07605000;8.86719200;2023-09-07T05:41:07;11.93;;;5.00;;
6926;SDS011;3503;50.07605000;8.86719200;2023-09-07T05:56:10;7.80;;;5.90;;
6926;SDS011;3503;50.07605000;8.86719200;2023-09-07T06:11:13;9.23;;;6.60;;
6926;SDS011;3503;50.07605000;8.86719200;2023-09-07T06:26:16;12.60;;;6.50;;
6926;SDS011;3503;50.07605000;8.86719200;2023-09-07T06:41:20;13.70;;;7.13;;
6926;SDS011;3503;50.07605000;8.86719200;2023-09-07T06:56:23;10.00;;;7.00;;
6926;SDS011;3503;50.07605000;8.86719200;2023-09-07T07:11:27;13.87;;;7.50;;
6926;SDS011;3503;50.07605000;8.86719200;2023-09-07T07:26:30;17.10;;;6.83;;
6926;SDS011;3503;50.07605000;8.86719200;2023-09-07T07:41:34;8.87;;;5.40;;
6926;SDS011;3503;50.07605000;8.86719200;2023-09-07T07:56:38;8.60;;;5.93;;
6926;SDS011;3503;50.07605000;8.86719200;2023-09-07T08:11:41;6.50;;;4.43;;
6926;SDS011;3503;50.07605000;8.86719200;2023-09-07T08:26:44;6.23;;;4.97;;
6926;SDS011;3503;50.07605000;8.86719200;2023-09-07T08:41:47;7.23;;;4.53;;
6926;SDS011;3503;50.07605000;8.86719200;2023-09-07T08:56:50;7.40;;;4.97;;
6926;SDS011;3503;50.07605000;8.86719200;2023-09-07T09:11:53;7.93;;;3.87;;
6926;SDS011;3503;50.07605000;8.86719200;2023-09-07T09:26:57;5.20;;;3.53;;
6926;SDS011;3503;50.07605000;8.86719200;2023-09-07T09:42:00;4.33;;;3.93;;
6926;SDS011;3503;50.07605000;8.86719200;2023-09-07T09:57:03;5.20;;;3.60;;
6926;SDS011;3503;50.07605000;8.86719200;2023-09-07T10:12:10;6.50;;;3.03;;
6926;SDS011;3503;50.07605000;8.86719200;2023-09-07T10:27:14;7.20;;;4.37;;
6926;SDS011;3503;50.07605000;8.86719200;2023-09-07T10:42:23;7.20;;;3.20;;
6926;SDS011;3503;50.07605000;8.86719200;2023-09-07T10:57:27;6.13;;;3.70;;
6926;SDS011;3503;50.07605000;8.86719200;2023-09-07T11:12:35;3.93;;;3.53;;
6926;SDS011;3503;50.07605000;8.86719200;2023-09-07T11:27:40;5.90;;;3.20;;
6926;SDS011;3503;50.07605000;8.86719200;2023-09-07T11:42:43;4.13;;;3.43;;
6926;SDS011;3503;50.07605000;8.86719200;2023-09-07T11:57:46;4.17;;;3.20;;
6926;SDS011;3503;50.07605000;8.86719200;2023-09-07T12:12:49;4.97;;;3.43;;
6926;SDS011;3503;50.07605000;8.86719200;2023-09-07T12:27:52;8.23;;;3.43;;
6926;SDS011;3503;50.07605000;8.86719200;2023-09-07T12:42:55;2.90;;;2.60;;
6926;SDS011;3503;50.07605000;8.86719200;2023-09-07T12:57:58;2.20;;;2.10;;
6926;SDS011;3503;50.07605000;8.86719200;2023-09-07T13:13:02;4.57;;;2.77;;
6926;SDS011;3503;50.07605000;8.86719200;2023-09-07T13:28:05;5.80;;;3.67;;
6926;SDS011;3503;50.07605000;8.86719200;2023-09-07T13:43:08;4.50;;;3.13;;
6926;SDS011;3503;50.07605000;8.86719200;2023-09-07T13:58:11;4.30;;;2.60;;
6926;SDS011;3503;50.07605000;8.86719200;2023-09-07T14:13:15;3.40;;;3.10;;
6926;SDS011;3503;50.07605000;8.86719200;2023-09-07T14:28:18;4.60;;;3.03;;
6926;SDS011;3503;50.07605000;8.86719200;2023-09-07T14:43:21;5.30;;;4.03;;
6926;SDS011;3503;50.07605000;8.86719200;2023-09-07T14:58:24;5.57;;;3.53;;
6926;SDS011;3503;50.07605000;8.86719200;2023-09-07T15:13:27;8.03;;;3.37;;
6926;SDS011;3503;50.07605000;8.86719200;2023-09-07T15:28:30;4.67;;;4.10;;
6926;SDS011;3503;50.07605000;8.86719200;2023-09-07T15:43:33;6.37;;;3.27;;
6926;SDS011;3503;50.07605000;8.86719200;2023-09-07T15:58:36;7.33;;;4.17;;
6926;SDS011;3503;50.07605000;8.86719200;2023-09-07T16:13:40;7.17;;;4.20;;
6926;SDS011;3503;50.07605000;8.86719200;2023-09-07T16:28:43;6.23;;;4.03;;
6926;SDS011;3503;50.07605000;8.86719200;2023-09-07T16:43:46;6.27;;;4.77;;
6926;SDS011;3503;50.07605000;8.86719200;2023-09-07T16:58:49;5.47;;;3.80;;
6926;SDS011;3503;50.07605000;8.86719200;2023-09-07T17:13:52;9.70;;;4.10;;
6926;SDS011;3503;50.07605000;8.86719200;2023-09-07T17:28:55;6.03;;;4.63;;
6926;SDS011;3503;50.07605000;8.86719200;2023-09-07T17:43:58;9.30;;;5.57;;
6926;SDS011;3503;50.07605000;8.86719200;2023-09-07T17:59:01;18.00;;;10.90;;
6926;SDS011;3503;50.07605000;8.86719200;2023-09-07T18:14:05;11.20;;;6.33;;
6926;SDS011;3503;50.07605000;8.86719200;2023-09-07T18:29:08;7.90;;;5.33;;
6926;SDS011;3503;50.07605000;8.86719200;2023-09-07T18:44:11;9.57;;;6.57;;
6926;SDS011;3503;50.07605000;8.86719200;2023-09-07T18:59:15;8.63;;;5.97;;
6926;SDS011;3503;50.07605000;8.86719200;2023-09-07T19:14:18;8.00;;;6.17;;
6926;SDS011;3503;50.07605000;8.86719200;2023-09-07T19:29:24;7.17;;;6.00;;
6926;SDS011;3503;50.07605000;8.86719200;2023-09-07T19:44:28;15.43;;;7.23;;
6926;SDS011;3503;50.07605000;8.86719200;2023-09-07T19:59:32;17.43;;;7.30;;
6926;SDS011;3503;50.07605000;8.86719200;2023-09-07T20:14:35;12.23;;;7.30;;
6926;SDS011;3503;50.07605000;8.86719200;2023-09-07T20:29:38;12.20;;;7.97;;
6926;SDS011;3503;50.07605000;8.86719200;2023-09-07T20:44:41;16.43;;;7.80;;
6926;SDS011;3503;50.07605000;8.86719200;2023-09-07T20:59:44;7.77;;;6.90;;
6926;SDS011;3503;50.07605000;8.86719200;2023-09-07T21:14:47;19.07;;;8.30;;
6926;SDS011;3503;50.07605000;8.86719200;2023-09-07T21:29:50;17.80;;;10.53;;
6926;SDS011;3503;50.07605000;8.86719200;2023-09-07T21:44:53;12.20;;;8.37;;
6926;SDS011;3503;50.07605000;8.86719200;2023-09-07T21:59:56;14.63;;;9.20;;
6926;SDS011;3503;50.07605000;8.86719200;2023-09-07T22:14:59;13.70;;;8.67;;
6926;SDS011;3503;50.07605000;8.86719200;2023-09-07T22:30:04;10.23;;;7.80;;
6926;SDS011;3503;50.07605000;8.86719200;2023-09-07T22:45:09;13.30;;;7.57;;
6926;SDS011;3503;50.07605000;8.86719200;2023-09-07T23:00:12;11.13;;;8.00;;
6926;SDS011;3503;50.07605000;8.86719200;2023-09-07T23:15:16;11.83;;;8.70;;
6926;SDS011;3503;50.07605000;8.86719200;2023-09-07T23:30:20;10.93;;;8.50;;
6926;SDS011;3503;50.07605000;8.86719200;2023-09-07T23:45:23;14.00;;;8.70;;
